sensor_id;sensor_type;location;lat;lon;timestamp;pressure;altitude;pressure_sealevel;temperature;humidity
72486;BME280;60509;47.308;-122.428;2022-08-20T00:02:01;100286.36;;;16.60;36.31
72486;BME280;60509;47.308;-122.428;2022-08-20T00:04:27;100286.90;;;18.79;33.76
72486;BME280;60509;47.308;-122.428;2022-08-20T00:06:52;100279.34;;;21.13;29.72
72486;BME280;60509;47.308;-122.428;2022-08-20T00:09:18;100279.84;;;20.59;30.86
72486;BME280;60509;47.308;-122.428;2022-08-20T00:11:43;100277.45;;;20.11;31.73
72486;BME280;60509;47.308;-122.428;2022-08-20T00:14:09;100280.05;;;21.58;28.88
72486;BME280;60509;47.308;-122.428;2022-08-20T00:16:36;100284.00;;;19.57;31.04
72486;BME280;60509;47.308;-122.428;2022-08-20T00:19:00;100282.00;;;20.99;28.82
72486;BME280;60509;47.308;-122.428;2022-08-20T00:21:25;100285.83;;;19.36;30.01
72486;BME280;60509;47.308;-122.428;2022-08-20T00:23:52;100289.91;;;21.36;28.33
72486;BME280;60509;47.308;-122.428;2022-08-20T00:26:16;100286.25;;;20.37;29.95
72486;BME280;60509;47.308;-122.428;2022-08-20T00:28:41;100283.63;;;20.15;29.93
72486;BME280;60509;47.308;-122.428;2022-08-20T00:31:09;100282.32;;;19.69;30.92
72486;BME280;60509;47.308;-122.428;2022-08-20T00:33:32;100282.70;;;18.83;32.77
72486;BME280;60509;47.308;-122.428;2022-08-20T00:35:57;100286.02;;;19.67;31.92
72486;BME280;60509;47.308;-122.428;2022-08-20T00:38:24;100282.24;;;22.60;27.97
72486;BME280;60509;47.308;-122.428;2022-08-20T00:40:52;100283.74;;;22.42;27.41
72486;BME280;60509;47.308;-122.428;2022-08-20T00:43:33;100276.12;;;23.64;25.10
72486;BME280;60509;47.308;-122.428;2022-08-20T00:45:39;100281.04;;;20.99;27.36
72486;BME280;60509;47.308;-122.428;2022-08-20T00:48:04;100278.10;;;22.78;26.79
72486;BME280;60509;47.308;-122.428;2022-08-20T00:50:32;100277.35;;;21.23;27.33
72486;BME280;60509;47.308;-122.428;2022-08-20T00:52:55;100276.26;;;22.58;25.39
72486;BME280;60509;47.308;-122.428;2022-08-20T00:55:22;100268.78;;;24.01;24.04
72486;BME280;60509;47.308;-122.428;2022-08-20T00:57:48;100269.62;;;24.11;25.71
72486;BME280;60509;47.308;-122.428;2022-08-20T01:00:18;100273.94;;;21.25;27.13
72486;BME280;60509;47.308;-122.428;2022-08-20T01:02:36;100271.05;;;22.25;26.69
72486;BME280;60509;47.308;-122.428;2022-08-20T01:05:02;100272.85;;;23.88;25.65
72486;BME280;60509;47.308;-122.428;2022-08-20T01:07:27;100268.60;;;23.82;25.15
72486;BME280;60509;47.308;-122.428;2022-08-20T01:09:52;100273.76;;;21.72;26.12
72486;BME280;60509;47.308;-122.428;2022-08-20T01:12:18;100277.77;;;23.55;25.11
72486;BME280;60509;47.308;-122.428;2022-08-20T01:14:44;100273.52;;;23.94;24.21
72486;BME280;60509;47.308;-122.428;2022-08-20T01:17:08;100273.86;;;24.48;23.21
72486;BME280;60509;47.308;-122.428;2022-08-20T01:19:37;100271.37;;;26.76;21.39
72486;BME280;60509;47.308;-122.428;2022-08-20T01:21:59;100275.09;;;21.40;25.18
72486;BME280;60509;47.308;-122.428;2022-08-20T01:24:29;100270.14;;;25.51;22.16
72486;BME280;60509;47.308;-122.428;2022-08-20T01:26:50;100269.95;;;26.28;20.91
72486;BME280;60509;47.308;-122.428;2022-08-20T01:29:18;100267.80;;;25.79;21.24
72486;BME280;60509;47.308;-122.428;2022-08-20T01:31:40;100267.30;;;25.07;22.34
72486;BME280;60509;47.308;-122.428;2022-08-20T01:34:07;100266.81;;;25.30;21.36
72486;BME280;60509;47.308;-122.428;2022-08-20T01:36:34;100266.49;;;26.43;21.10
72486;BME280;60509;47.308;-122.428;2022-08-20T01:38:56;100267.05;;;24.88;22.42
72486;BME280;60509;47.308;-122.428;2022-08-20T01:41:29;100264.19;;;25.22;22.62
72486;BME280;60509;47.308;-122.428;2022-08-20T01:43:47;100266.09;;;26.09;21.32
72486;BME280;60509;47.308;-122.428;2022-08-20T01:46:12;100262.24;;;27.44;21.16
72486;BME280;60509;47.308;-122.428;2022-08-20T01:48:38;100261.05;;;25.99;21.09
72486;BME280;60509;47.308;-122.428;2022-08-20T01:51:06;100258.44;;;27.55;20.35
72486;BME280;60509;47.308;-122.428;2022-08-20T01:53:34;100258.83;;;27.86;20.44
72486;BME280;60509;47.308;-122.428;2022-08-20T01:55:52;100259.28;;;28.23;19.75
72486;BME280;60509;47.308;-122.428;2022-08-20T01:58:18;100257.88;;;27.11;21.25
72486;BME280;60509;47.308;-122.428;2022-08-20T02:00:43;100260.59;;;25.58;22.93
72486;BME280;60509;47.308;-122.428;2022-08-20T02:03:08;100260.48;;;24.54;24.40
72486;BME280;60509;47.308;-122.428;2022-08-20T02:05:34;100263.13;;;23.34;25.25
72486;BME280;60509;47.308;-122.428;2022-08-20T02:07:59;100255.40;;;26.41;23.25
72486;BME280;60509;47.308;-122.428;2022-08-20T02:10:24;100259.21;;;22.28;26.30
72486;BME280;60509;47.308;-122.428;2022-08-20T02:12:50;100258.53;;;22.62;26.60
72486;BME280;60509;47.308;-122.428;2022-08-20T02:15:15;100258.86;;;23.75;25.16
72486;BME280;60509;47.308;-122.428;2022-08-20T02:17:41;100257.92;;;24.64;24.77
72486;BME280;60509;47.308;-122.428;2022-08-20T02:20:10;100262.24;;;23.72;24.87
72486;BME280;60509;47.308;-122.428;2022-08-20T02:22:41;100264.76;;;24.10;24.93
72486;BME280;60509;47.308;-122.428;2022-08-20T02:24:57;100265.82;;;24.23;24.75
72486;BME280;60509;47.308;-122.428;2022-08-20T02:27:22;100267.47;;;23.44;26.01
72486;BME280;60509;47.308;-122.428;2022-08-20T02:29:47;100270.91;;;21.40;28.46
72486;BME280;60509;47.308;-122.428;2022-08-20T02:32:13;100268.34;;;21.82;28.64
72486;BME280;60509;47.308;-122.428;2022-08-20T02:34:38;100268.97;;;21.77;28.54
72486;BME280;60509;47.308;-122.428;2022-08-20T02:37:06;100273.03;;;20.30;31.00
72486;BME280;60509;47.308;-122.428;2022-08-20T02:39:29;100278.14;;;15.65;36.59
72486;BME280;60509;47.308;-122.428;2022-08-20T02:41:55;100279.32;;;14.97;38.53
72486;BME280;60509;47.308;-122.428;2022-08-20T02:44:20;100280.07;;;16.26;39.01
72486;BME280;60509;47.308;-122.428;2022-08-20T02:46:47;100279.29;;;16.51;39.23
72486;BME280;60509;47.308;-122.428;2022-08-20T02:49:11;100278.03;;;15.49;40.32
72486;BME280;60509;47.308;-122.428;2022-08-20T02:51:37;100287.13;;;14.48;42.46
72486;BME280;60509;47.308;-122.428;2022-08-20T02:54:03;100288.50;;;14.64;42.31
72486;BME280;60509;47.308;-122.428;2022-08-20T02:56:28;100284.44;;;16.34;40.30
72486;BME280;60509;47.308;-122.428;2022-08-20T02:58:54;100289.45;;;15.06;41.96
72486;BME280;60509;47.308;-122.428;2022-08-20T03:01:19;100294.37;;;13.89;43.77
72486;BME280;60509;47.308;-122.428;2022-08-20T03:03:45;100296.31;;;13.17;44.01
72486;BME280;60509;47.308;-122.428;2022-08-20T03:06:13;100297.99;;;13.01;44.95
72486;BME280;60509;47.308;-122.428;2022-08-20T03:08:37;100297.67;;;12.77;45.56
72486;BME280;60509;47.308;-122.428;2022-08-20T03:11:03;100299.14;;;12.88;45.28
72486;BME280;60509;47.308;-122.428;2022-08-20T03:13:28;100298.63;;;12.64;47.36
72486;BME280;60509;47.308;-122.428;2022-08-20T03:15:56;100298.01;;;11.72;48.39
72486;BME280;60509;47.308;-122.428;2022-08-20T03:18:21;100304.82;;;11.00;50.15
72486;BME280;60509;47.308;-122.428;2022-08-20T03:20:45;100305.70;;;12.04;48.68
72486;BME280;60509;47.308;-122.428;2022-08-20T03:23:11;100310.85;;;12.75;47.44
72486;BME280;60509;47.308;-122.428;2022-08-20T03:25:36;100311.56;;;11.84;49.28
72486;BME280;60509;47.308;-122.428;2022-08-20T03:28:03;100314.25;;;12.22;48.11
72486;BME280;60509;47.308;-122.428;2022-08-20T03:30:28;100313.04;;;12.21;48.78
72486;BME280;60509;47.308;-122.428;2022-08-20T03:32:54;100317.77;;;12.56;47.47
72486;BME280;60509;47.308;-122.428;2022-08-20T03:35:22;100324.67;;;12.20;48.96
72486;BME280;60509;47.308;-122.428;2022-08-20T03:37:45;100326.88;;;11.65;49.22
72486;BME280;60509;47.308;-122.428;2022-08-20T03:40:16;100333.67;;;11.19;50.21
72486;BME280;60509;47.308;-122.428;2022-08-20T03:42:37;100332.36;;;12.36;49.15
72486;BME280;60509;47.308;-122.428;2022-08-20T03:45:03;100336.51;;;11.71;49.82
72486;BME280;60509;47.308;-122.428;2022-08-20T03:47:28;100343.35;;;11.39;52.03
72486;BME280;60509;47.308;-122.428;2022-08-20T03:49:58;100339.67;;;11.02;51.43
72486;BME280;60509;47.308;-122.428;2022-08-20T03:52:20;100340.96;;;10.94;51.26
72486;BME280;60509;47.308;-122.428;2022-08-20T03:54:45;100346.03;;;10.90;52.71
72486;BME280;60509;47.308;-122.428;2022-08-20T03:57:13;100352.44;;;10.97;52.64
72486;BME280;60509;47.308;-122.428;2022-08-20T03:59:37;100354.29;;;11.47;50.70
72486;BME280;60509;47.308;-122.428;2022-08-20T04:02:03;100358.53;;;9.78;54.27
72486;BME280;60509;47.308;-122.428;2022-08-20T04:04:29;100360.21;;;10.47;52.63
72486;BME280;60509;47.308;-122.428;2022-08-20T04:06:54;100362.49;;;11.17;51.53
72486;BME280;60509;47.308;-122.428;2022-08-20T04:09:20;100362.46;;;10.03;52.66
72486;BME280;60509;47.308;-122.428;2022-08-20T04:11:46;100369.03;;;10.16;53.64
72486;BME280;60509;47.308;-122.428;2022-08-20T04:14:12;100369.79;;;10.31;54.02
72486;BME280;60509;47.308;-122.428;2022-08-20T04:16:38;100370.76;;;10.03;54.21
72486;BME280;60509;47.308;-122.428;2022-08-20T04:19:04;100371.96;;;9.96;55.59
72486;BME280;60509;47.308;-122.428;2022-08-20T04:21:31;100378.47;;;9.58;56.96
72486;BME280;60509;47.308;-122.428;2022-08-20T04:23:55;100379.61;;;9.29;56.31
72486;BME280;60509;47.308;-122.428;2022-08-20T04:26:21;100379.25;;;8.97;58.47
72486;BME280;60509;47.308;-122.428;2022-08-20T04:28:47;100383.81;;;9.16;57.54
72486;BME280;60509;47.308;-122.428;2022-08-20T04:31:13;100387.92;;;9.03;57.64
72486;BME280;60509;47.308;-122.428;2022-08-20T04:33:39;100388.38;;;8.54;57.90
72486;BME280;60509;47.308;-122.428;2022-08-20T04:36:05;100389.03;;;9.76;57.00
72486;BME280;60509;47.308;-122.428;2022-08-20T04:38:31;100390.66;;;9.29;56.52
72486;BME280;60509;47.308;-122.428;2022-08-20T04:40:56;100393.29;;;8.35;59.19
72486;BME280;60509;47.308;-122.428;2022-08-20T04:43:25;100400.62;;;8.35;59.10
72486;BME280;60509;47.308;-122.428;2022-08-20T04:45:48;100394.57;;;8.50;60.02
72486;BME280;60509;47.308;-122.428;2022-08-20T04:48:14;100399.23;;;8.92;60.26
72486;BME280;60509;47.308;-122.428;2022-08-20T04:50:42;100397.09;;;9.11;59.18
72486;BME280;60509;47.308;-122.428;2022-08-20T04:53:08;100399.34;;;9.04;58.36
72486;BME280;60509;47.308;-122.428;2022-08-20T04:55:32;100399.80;;;8.79;57.46
72486;BME280;60509;47.308;-122.428;2022-08-20T04:58:02;100400.06;;;9.40;56.28
72486;BME280;60509;47.308;-122.428;2022-08-20T05:00:23;100401.14;;;8.78;56.54
72486;BME280;60509;47.308;-122.428;2022-08-20T05:02:49;100403.01;;;8.68;56.71
72486;BME280;60509;47.308;-122.428;2022-08-20T05:05:15;100400.66;;;8.16;57.48
72486;BME280;60509;47.308;-122.428;2022-08-20T05:07:42;100401.21;;;8.96;56.33
72486;BME280;60509;47.308;-122.428;2022-08-20T05:10:09;100405.39;;;8.61;56.25
72486;BME280;60509;47.308;-122.428;2022-08-20T05:12:33;100405.55;;;9.36;55.68
72486;BME280;60509;47.308;-122.428;2022-08-20T05:14:58;100404.02;;;9.85;53.98
72486;BME280;60509;47.308;-122.428;2022-08-20T05:17:24;100404.12;;;8.98;56.50
72486;BME280;60509;47.308;-122.428;2022-08-20T05:19:52;100402.61;;;9.13;56.90
72486;BME280;60509;47.308;-122.428;2022-08-20T05:22:16;100400.06;;;9.52;56.11
72486;BME280;60509;47.308;-122.428;2022-08-20T05:24:42;100400.91;;;9.82;55.41
72486;BME280;60509;47.308;-122.428;2022-08-20T05:27:08;100399.50;;;9.55;55.42
72486;BME280;60509;47.308;-122.428;2022-08-20T05:29:34;100396.42;;;9.59;55.52
72486;BME280;60509;47.308;-122.428;2022-08-20T05:32:00;100396.92;;;9.85;55.31
72486;BME280;60509;47.308;-122.428;2022-08-20T05:34:26;100399.22;;;8.60;56.64
72486;BME280;60509;47.308;-122.428;2022-08-20T05:36:52;100399.26;;;9.07;57.75
72486;BME280;60509;47.308;-122.428;2022-08-20T05:39:19;100404.41;;;8.98;58.04
72486;BME280;60509;47.308;-122.428;2022-08-20T05:41:43;100407.88;;;9.48;56.22
72486;BME280;60509;47.308;-122.428;2022-08-20T05:44:10;100409.66;;;9.25;56.15
72486;BME280;60509;47.308;-122.428;2022-08-20T05:46:36;100413.96;;;8.50;57.82
72486;BME280;60509;47.308;-122.428;2022-08-20T05:49:01;100415.37;;;9.01;56.93
72486;BME280;60509;47.308;-122.428;2022-08-20T05:51:28;100420.10;;;8.47;58.35
72486;BME280;60509;47.308;-122.428;2022-08-20T05:53:53;100425.22;;;8.67;58.33
72486;BME280;60509;47.308;-122.428;2022-08-20T05:56:19;100424.26;;;8.03;59.54
72486;BME280;60509;47.308;-122.428;2022-08-20T05:58:45;100428.14;;;8.63;57.43
72486;BME280;60509;47.308;-122.428;2022-08-20T06:01:11;100433.35;;;6.89;61.41
72486;BME280;60509;47.308;-122.428;2022-08-20T06:03:37;100434.08;;;8.16;58.96
72486;BME280;60509;47.308;-122.428;2022-08-20T06:06:04;100437.02;;;8.20;58.80
72486;BME280;60509;47.308;-122.428;2022-08-20T06:08:29;100438.62;;;8.28;58.83
72486;BME280;60509;47.308;-122.428;2022-08-20T06:10:55;100439.49;;;7.77;59.33
72486;BME280;60509;47.308;-122.428;2022-08-20T06:13:21;100442.03;;;7.96;60.69
72486;BME280;60509;47.308;-122.428;2022-08-20T06:15:47;100439.43;;;8.08;60.46
72486;BME280;60509;47.308;-122.428;2022-08-20T06:18:13;100441.17;;;8.40;60.09
72486;BME280;60509;47.308;-122.428;2022-08-20T06:20:39;100441.52;;;7.09;62.49
72486;BME280;60509;47.308;-122.428;2022-08-20T06:23:05;100441.59;;;8.30;58.94
72486;BME280;60509;47.308;-122.428;2022-08-20T06:25:31;100438.15;;;8.23;59.59
72486;BME280;60509;47.308;-122.428;2022-08-20T06:27:57;100434.33;;;8.02;60.34
72486;BME280;60509;47.308;-122.428;2022-08-20T06:30:22;100434.72;;;8.34;58.31
72486;BME280;60509;47.308;-122.428;2022-08-20T06:32:48;100435.75;;;8.61;60.22
72486;BME280;60509;47.308;-122.428;2022-08-20T06:35:14;100434.57;;;8.31;59.95
72486;BME280;60509;47.308;-122.428;2022-08-20T06:37:40;100432.34;;;7.78;60.67
72486;BME280;60509;47.308;-122.428;2022-08-20T06:40:10;100434.33;;;8.43;58.29
72486;BME280;60509;47.308;-122.428;2022-08-20T06:42:32;100435.77;;;8.08;57.67
72486;BME280;60509;47.308;-122.428;2022-08-20T06:44:58;100430.35;;;7.90;59.32
72486;BME280;60509;47.308;-122.428;2022-08-20T06:47:25;100434.70;;;8.45;58.98
72486;BME280;60509;47.308;-122.428;2022-08-20T06:49:50;100432.84;;;8.10;58.21
72486;BME280;60509;47.308;-122.428;2022-08-20T06:52:16;100438.46;;;8.10;58.21
72486;BME280;60509;47.308;-122.428;2022-08-20T06:54:42;100438.56;;;8.63;57.51
72486;BME280;60509;47.308;-122.428;2022-08-20T06:57:09;100438.26;;;8.58;55.62
72486;BME280;60509;47.308;-122.428;2022-08-20T06:59:34;100434.12;;;8.87;57.03
72486;BME280;60509;47.308;-122.428;2022-08-20T07:02:00;100433.61;;;8.53;56.19
72486;BME280;60509;47.308;-122.428;2022-08-20T07:04:26;100432.88;;;8.38;56.65
72486;BME280;60509;47.308;-122.428;2022-08-20T07:06:52;100436.18;;;8.04;57.60
72486;BME280;60509;47.308;-122.428;2022-08-20T07:09:17;100434.42;;;8.33;56.80
72486;BME280;60509;47.308;-122.428;2022-08-20T07:11:43;100432.20;;;7.46;58.58
72486;BME280;60509;47.308;-122.428;2022-08-20T07:14:09;100440.07;;;8.17;57.99
72486;BME280;60509;47.308;-122.428;2022-08-20T07:16:35;100438.02;;;8.79;56.77
72486;BME280;60509;47.308;-122.428;2022-08-20T07:19:01;100439.92;;;7.91;56.38
72486;BME280;60509;47.308;-122.428;2022-08-20T07:21:27;100439.16;;;8.82;54.60
72486;BME280;60509;47.308;-122.428;2022-08-20T07:23:53;100442.27;;;9.44;52.78
72486;BME280;60509;47.308;-122.428;2022-08-20T07:26:19;100440.04;;;9.32;53.43
72486;BME280;60509;47.308;-122.428;2022-08-20T07:28:45;100441.88;;;9.99;51.87
72486;BME280;60509;47.308;-122.428;2022-08-20T07:31:11;100446.08;;;8.60;53.46
72486;BME280;60509;47.308;-122.428;2022-08-20T07:33:37;100447.64;;;9.62;52.32
72486;BME280;60509;47.308;-122.428;2022-08-20T07:36:03;100445.44;;;9.07;53.03
72486;BME280;60509;47.308;-122.428;2022-08-20T07:38:30;100450.42;;;8.70;53.01
72486;BME280;60509;47.308;-122.428;2022-08-20T07:40:57;100450.10;;;8.83;53.88
72486;BME280;60509;47.308;-122.428;2022-08-20T07:43:21;100449.21;;;9.44;53.49
72486;BME280;60509;47.308;-122.428;2022-08-20T07:45:46;100446.55;;;9.68;53.10
72486;BME280;60509;47.308;-122.428;2022-08-20T07:48:14;100446.22;;;9.34;53.99
72486;BME280;60509;47.308;-122.428;2022-08-20T07:50:38;100445.80;;;8.61;54.77
72486;BME280;60509;47.308;-122.428;2022-08-20T07:53:05;100446.54;;;8.57;54.32
72486;BME280;60509;47.308;-122.428;2022-08-20T07:55:30;100452.22;;;8.70;53.30
72486;BME280;60509;47.308;-122.428;2022-08-20T07:57:58;100454.25;;;8.61;54.70
72486;BME280;60509;47.308;-122.428;2022-08-20T08:00:25;100455.00;;;8.90;54.75
72486;BME280;60509;47.308;-122.428;2022-08-20T08:02:48;100454.46;;;8.27;55.42
72486;BME280;60509;47.308;-122.428;2022-08-20T08:05:14;100456.08;;;8.00;55.15
72486;BME280;60509;47.308;-122.428;2022-08-20T08:07:40;100461.65;;;8.70;53.51
72486;BME280;60509;47.308;-122.428;2022-08-20T08:10:09;100460.41;;;8.92;54.31
72486;BME280;60509;47.308;-122.428;2022-08-20T08:12:35;100457.06;;;8.42;55.46
72486;BME280;60509;47.308;-122.428;2022-08-20T08:14:58;100455.48;;;8.41;55.32
72486;BME280;60509;47.308;-122.428;2022-08-20T08:17:23;100456.47;;;8.42;56.69
72486;BME280;60509;47.308;-122.428;2022-08-20T08:19:50;100458.00;;;6.81;59.14
72486;BME280;60509;47.308;-122.428;2022-08-20T08:22:17;100461.73;;;8.21;57.06
72486;BME280;60509;47.308;-122.428;2022-08-20T08:24:42;100464.32;;;8.15;56.13
72486;BME280;60509;47.308;-122.428;2022-08-20T08:27:07;100461.87;;;7.46;57.46
72486;BME280;60509;47.308;-122.428;2022-08-20T08:29:33;100461.07;;;6.49;59.35
72486;BME280;60509;47.308;-122.428;2022-08-20T08:32:00;100460.37;;;7.80;57.10
72486;BME280;60509;47.308;-122.428;2022-08-20T08:34:25;100459.17;;;7.37;58.55
72486;BME280;60509;47.308;-122.428;2022-08-20T08:36:51;100456.68;;;8.27;56.31
72486;BME280;60509;47.308;-122.428;2022-08-20T08:39:17;100459.06;;;6.80;58.40
72486;BME280;60509;47.308;-122.428;2022-08-20T08:41:45;100453.73;;;8.54;55.33
72486;BME280;60509;47.308;-122.428;2022-08-20T08:44:13;100450.95;;;7.82;56.42
72486;BME280;60509;47.308;-122.428;2022-08-20T08:46:39;100448.43;;;7.24;57.51
72486;BME280;60509;47.308;-122.428;2022-08-20T08:49:01;100445.54;;;7.84;57.32
72486;BME280;60509;47.308;-122.428;2022-08-20T08:51:31;100447.87;;;8.21;57.43
72486;BME280;60509;47.308;-122.428;2022-08-20T08:53:54;100442.75;;;8.39;55.63
72486;BME280;60509;47.308;-122.428;2022-08-20T08:56:20;100442.11;;;8.09;56.23
72486;BME280;60509;47.308;-122.428;2022-08-20T08:58:45;100441.86;;;8.88;54.10
72486;BME280;60509;47.308;-122.428;2022-08-20T09:01:17;100438.78;;;7.98;56.35
72486;BME280;60509;47.308;-122.428;2022-08-20T09:03:38;100436.61;;;8.06;57.35
72486;BME280;60509;47.308;-122.428;2022-08-20T09:06:03;100430.96;;;7.98;56.97
72486;BME280;60509;47.308;-122.428;2022-08-20T09:08:32;100430.60;;;8.43;56.23
72486;BME280;60509;47.308;-122.428;2022-08-20T09:11:00;100427.60;;;7.20;57.87
72486;BME280;60509;47.308;-122.428;2022-08-20T09:13:21;100427.78;;;8.32;55.44
72486;BME280;60509;47.308;-122.428;2022-08-20T09:15:47;100429.65;;;7.81;57.69
72486;BME280;60509;47.308;-122.428;2022-08-20T09:18:13;100428.75;;;7.96;57.49
72486;BME280;60509;47.308;-122.428;2022-08-20T09:20:39;100429.74;;;7.66;56.87
72486;BME280;60509;47.308;-122.428;2022-08-20T09:23:05;100428.05;;;8.29;55.82
72486;BME280;60509;47.308;-122.428;2022-08-20T09:25:31;100425.23;;;7.48;56.72
72486;BME280;60509;47.308;-122.428;2022-08-20T09:27:56;100423.19;;;8.52;55.41
72486;BME280;60509;47.308;-122.428;2022-08-20T09:30:22;100423.40;;;7.85;57.30
72486;BME280;60509;47.308;-122.428;2022-08-20T09:32:48;100421.62;;;7.99;56.25
72486;BME280;60509;47.308;-122.428;2022-08-20T09:35:15;100419.21;;;8.63;54.99
72486;BME280;60509;47.308;-122.428;2022-08-20T09:37:40;100423.27;;;8.39;55.80
72486;BME280;60509;47.308;-122.428;2022-08-20T09:40:08;100422.56;;;7.96;56.57
72486;BME280;60509;47.308;-122.428;2022-08-20T09:42:35;100423.34;;;8.58;55.01
72486;BME280;60509;47.308;-122.428;2022-08-20T09:44:59;100423.23;;;8.54;55.56
72486;BME280;60509;47.308;-122.428;2022-08-20T09:47:25;100423.65;;;7.96;56.31
72486;BME280;60509;47.308;-122.428;2022-08-20T09:49:50;100425.81;;;9.04;53.20
72486;BME280;60509;47.308;-122.428;2022-08-20T09:52:21;100425.76;;;8.94;52.82
72486;BME280;60509;47.308;-122.428;2022-08-20T09:54:42;100423.90;;;8.75;52.55
72486;BME280;60509;47.308;-122.428;2022-08-20T09:57:09;100427.30;;;8.12;53.70
72486;BME280;60509;47.308;-122.428;2022-08-20T09:59:35;100434.94;;;8.92;53.15
72486;BME280;60509;47.308;-122.428;2022-08-20T10:02:00;100433.45;;;8.96;52.58
72486;BME280;60509;47.308;-122.428;2022-08-20T10:04:26;100437.09;;;8.84;53.05
72486;BME280;60509;47.308;-122.428;2022-08-20T10:06:52;100437.36;;;8.16;54.69
72486;BME280;60509;47.308;-122.428;2022-08-20T10:09:18;100438.76;;;8.56;54.28
72486;BME280;60509;47.308;-122.428;2022-08-20T10:11:44;100441.39;;;7.88;56.31
72486;BME280;60509;47.308;-122.428;2022-08-20T10:14:10;100439.12;;;7.04;58.00
72486;BME280;60509;47.308;-122.428;2022-08-20T10:16:36;100443.56;;;7.39;58.76
72486;BME280;60509;47.308;-122.428;2022-08-20T10:19:02;100446.83;;;7.57;58.15
72486;BME280;60509;47.308;-122.428;2022-08-20T10:21:29;100445.33;;;6.90;59.95
72486;BME280;60509;47.308;-122.428;2022-08-20T10:23:53;100449.54;;;6.61;60.91
72486;BME280;60509;47.308;-122.428;2022-08-20T10:26:19;100449.42;;;7.19;60.25
72486;BME280;60509;47.308;-122.428;2022-08-20T10:28:45;100454.18;;;6.81;61.67
72486;BME280;60509;47.308;-122.428;2022-08-20T10:31:12;100450.71;;;7.34;60.39
72486;BME280;60509;47.308;-122.428;2022-08-20T10:33:39;100454.70;;;6.99;59.80
72486;BME280;60509;47.308;-122.428;2022-08-20T10:36:06;100455.88;;;8.02;57.95
72486;BME280;60509;47.308;-122.428;2022-08-20T10:38:29;100458.65;;;7.96;57.85
72486;BME280;60509;47.308;-122.428;2022-08-20T10:40:55;100462.15;;;7.19;57.30
72486;BME280;60509;47.308;-122.428;2022-08-20T10:43:21;100464.30;;;8.31;55.99
72486;BME280;60509;47.308;-122.428;2022-08-20T10:45:47;100464.18;;;8.35;56.68
72486;BME280;60509;47.308;-122.428;2022-08-20T10:48:13;100460.25;;;8.13;56.03
72486;BME280;60509;47.308;-122.428;2022-08-20T10:50:39;100461.11;;;6.90;59.21
72486;BME280;60509;47.308;-122.428;2022-08-20T10:53:05;100457.26;;;8.04;57.56
72486;BME280;60509;47.308;-122.428;2022-08-20T10:55:31;100458.68;;;8.30;56.37
72486;BME280;60509;47.308;-122.428;2022-08-20T10:57:57;100459.09;;;6.82;58.05
72486;BME280;60509;47.308;-122.428;2022-08-20T11:00:23;100460.41;;;8.48;55.51
72486;BME280;60509;47.308;-122.428;2022-08-20T11:02:49;100459.48;;;8.06;55.05
72486;BME280;60509;47.308;-122.428;2022-08-20T11:05:15;100461.89;;;8.83;53.54
72486;BME280;60509;47.308;-122.428;2022-08-20T11:07:42;100463.20;;;8.39;53.86
72486;BME280;60509;47.308;-122.428;2022-08-20T11:10:08;100461.45;;;8.38;53.93
72486;BME280;60509;47.308;-122.428;2022-08-20T11:12:33;100461.19;;;8.42;53.97
72486;BME280;60509;47.308;-122.428;2022-08-20T11:14:59;100458.18;;;8.44;54.79
72486;BME280;60509;47.308;-122.428;2022-08-20T11:17:26;100464.32;;;8.31;56.08
72486;BME280;60509;47.308;-122.428;2022-08-20T11:19:51;100464.66;;;7.57;57.10
72486;BME280;60509;47.308;-122.428;2022-08-20T11:22:17;100463.19;;;7.80;56.40
72486;BME280;60509;47.308;-122.428;2022-08-20T11:24:43;100464.53;;;7.25;57.40
72486;BME280;60509;47.308;-122.428;2022-08-20T11:27:10;100462.77;;;8.11;57.78
72486;BME280;60509;47.308;-122.428;2022-08-20T11:29:36;100463.51;;;8.04;55.83
72486;BME280;60509;47.308;-122.428;2022-08-20T11:32:01;100465.62;;;7.05;58.18
72486;BME280;60509;47.308;-122.428;2022-08-20T11:34:27;100465.17;;;7.55;56.73
72486;BME280;60509;47.308;-122.428;2022-08-20T11:36:53;100464.73;;;7.54;55.71
72486;BME280;60509;47.308;-122.428;2022-08-20T11:39:19;100469.17;;;7.23;57.07
72486;BME280;60509;47.308;-122.428;2022-08-20T11:41:45;100467.96;;;7.66;56.17
72486;BME280;60509;47.308;-122.428;2022-08-20T11:44:11;100466.36;;;7.14;56.22
72486;BME280;60509;47.308;-122.428;2022-08-20T11:46:37;100467.30;;;8.17;55.22
72486;BME280;60509;47.308;-122.428;2022-08-20T11:49:03;100464.41;;;7.43;56.35
72486;BME280;60509;47.308;-122.428;2022-08-20T11:51:29;100460.81;;;8.10;55.34
72486;BME280;60509;47.308;-122.428;2022-08-20T11:53:54;100458.27;;;7.26;55.87
72486;BME280;60509;47.308;-122.428;2022-08-20T11:56:21;100460.09;;;6.20;58.13
72486;BME280;60509;47.308;-122.428;2022-08-20T11:58:47;100457.70;;;7.21;57.43
72486;BME280;60509;47.308;-122.428;2022-08-20T12:01:13;100458.57;;;7.83;55.81
72486;BME280;60509;47.308;-122.428;2022-08-20T12:03:38;100456.82;;;8.31;54.85
72486;BME280;60509;47.308;-122.428;2022-08-20T12:06:05;100455.81;;;7.39;56.64
72486;BME280;60509;47.308;-122.428;2022-08-20T12:08:30;100455.68;;;6.66;57.60
72486;BME280;60509;47.308;-122.428;2022-08-20T12:10:58;100456.14;;;7.16;56.21
72486;BME280;60509;47.308;-122.428;2022-08-20T12:13:22;100457.37;;;7.68;56.22
72486;BME280;60509;47.308;-122.428;2022-08-20T12:15:48;100458.11;;;7.83;55.63
72486;BME280;60509;47.308;-122.428;2022-08-20T12:18:14;100460.52;;;7.13;56.59